Aviation Digital Data Service (ADDS)

Output produced by METARs form (0853 UTC 03 August 2021)
found at http://www.aviationweather.gov/metar/data/
 
Forecast for: LXGB (GIBRALTAR (CIV/M, GI)
Text: TAF LXGB 030728Z 0309/0318 09008KT 9999 FEW014
Forecast period: 0900 to 1800 UTC 03 August 2021
Forecast type: FROM: standard forecast or significant change
Winds: from the E (90 degrees) at 9 MPH (8 knots; 4.1 m/s)
Visibility: 6 or more miles (10+ km)
Ceiling: at least 12,000 feet AGL
Clouds: few clouds at 1400 feet AGL
Weather: no significant weather forecast for this period
Text: PROB40 0309/0310 6000 HZ SCT006
Forecast period: 0900 to 1000 UTC 03 August 2021
Forecast type: PROBABLE: 40 percent likelihood of the following during this time
Visibility: 4 miles (6 km)
Ceiling: at least 12,000 feet AGL
Clouds: scattered clouds at 600 feet AGL
Weather: HZ  (haze)
Text: PROB40 0316/0318 6000 HZ SCT006
Forecast period: 1600 to 1800 UTC 03 August 2021
Forecast type: PROBABLE: 40 percent likelihood of the following during this time
Visibility: 4 miles (6 km)
Ceiling: at least 12,000 feet AGL
Clouds: scattered clouds at 600 feet AGL
Weather: HZ  (haze)